Time;durP1;ratioP1;P1;durP2;ratioP2;P2;SDS_P1;SDS_P2;PMS_P1;PMS_P2;Temp;Humidity;BMP_temperature;BMP_pressure;BME280_temperature;BME280_humidity;BME280_pressure;Samples;Min_cycle;Max_cycle;Signal;HPM_P1;HPM_P2
2022/03/05 00:00:06;;;;;;;20.17;11.20;;;;;;;10.97;33.33;99808.97;340906;29;1339;-64
2022/03/05 00:00:21;;;;;;;19.60;11.02;;;;;;;11.00;33.36;99819.25;339648;29;1294;-64
2022/03/05 00:00:33;;;;;;;18.80;10.90;;;;;;;10.91;33.30;99814.38;339912;29;739;-64
2022/03/05 00:00:46;;;;;;;21.17;10.90;;;;;;;10.58;33.26;99809.28;339671;29;1047;-64
2022/03/05 00:00:58;;;;;;;21.77;11.00;;;;;;;10.59;33.57;99821.41;339584;29;1216;-64
2022/03/05 00:01:11;;;;;;;20.77;11.32;;;;;;;10.77;33.48;99820.00;339035;29;1999;-64
2022/03/05 00:01:26;;;;;;;20.08;11.10;;;;;;;10.81;33.00;99816.41;339717;29;1080;-64
2022/03/05 00:01:41;;;;;;;20.52;11.38;;;;;;;10.71;33.30;99815.81;339932;29;850;-64
2022/03/05 00:01:53;;;;;;;21.58;11.55;;;;;;;10.83;33.39;99811.16;339644;29;1206;-64
2022/03/05 00:02:06;;;;;;;22.13;11.10;;;;;;;10.81;33.17;99807.75;339499;29;1048;-64
2022/03/05 00:02:18;;;;;;;21.50;11.20;;;;;;;10.75;33.27;99814.81;339782;29;1202;-64
2022/03/05 00:02:31;;;;;;;20.67;11.35;;;;;;;10.72;33.36;99811.47;340764;29;1106;-64
2022/03/05 00:02:44;;;;;;;20.38;12.13;;;;;;;10.85;33.40;99806.75;340749;29;1231;-64
2022/03/05 00:02:57;;;;;;;20.15;11.60;;;;;;;10.89;33.75;99811.81;340964;29;1264;-64
2022/03/05 00:03:13;;;;;;;19.35;10.65;;;;;;;10.95;33.17;99811.59;340314;29;1135;-64
2022/03/05 00:03:26;;;;;;;18.00;10.60;;;;;;;10.99;32.77;99807.16;340317;29;1239;-64
2022/03/05 00:03:38;;;;;;;18.48;10.77;;;;;;;10.99;33.01;99812.38;340911;29;1020;-64
2022/03/05 00:03:50;;;;;;;19.77;11.15;;;;;;;11.00;32.98;99803.66;340729;29;980;-65
2022/03/05 00:04:03;;;;;;;20.77;11.82;;;;;;;11.00;32.77;99808.84;340664;29;1031;-64
2022/03/05 00:04:16;;;;;;;19.52;11.60;;;;;;;11.13;32.48;99809.34;341615;28;1248;-63
2022/03/05 00:04:29;;;;;;;19.92;10.77;;;;;;;11.14;32.51;99811.84;340800;29;1113;-64
2022/03/05 00:04:41;;;;;;;20.67;10.63;;;;;;;11.16;32.31;99810.06;339842;29;1181;-64
2022/03/05 00:04:54;;;;;;;22.90;11.45;;;;;;;10.91;32.81;99807.41;338745;29;1839;-63
2022/03/05 00:05:06;;;;;;;20.90;11.40;;;;;;;10.98;32.65;99808.06;339675;29;1079;-64
2022/03/05 00:05:19;;;;;;;19.88;11.40;;;;;;;10.98;32.66;99810.66;339272;29;1015;-64
2022/03/05 00:05:31;;;;;;;18.30;10.93;;;;;;;11.03;32.61;99808.78;339489;29;1338;-64
2022/03/05 00:05:44;;;;;;;19.05;10.70;;;;;;;10.86;32.84;99805.84;339550;29;1052;-64
2022/03/05 00:05:57;;;;;;;19.45;10.55;;;;;;;10.75;33.28;99812.22;339394;29;1244;-64
2022/03/05 00:06:09;;;;;;;20.33;11.25;;;;;;;10.78;33.00;99809.53;339743;29;1306;-64
2022/03/05 00:06:21;;;;;;;21.45;12.07;;;;;;;10.74;33.15;99807.06;339733;29;1232;-64
2022/03/05 00:06:33;;;;;;;21.50;12.05;;;;;;;10.78;33.33;99811.28;339408;29;1907;-64
2022/03/05 00:06:47;;;;;;;22.20;11.98;;;;;;;10.62;33.37;99812.63;340233;29;1202;-64
2022/03/05 00:07:02;;;;;;;22.40;11.57;;;;;;;10.56;33.31;99813.66;341093;29;1205;-63
2022/03/05 00:07:14;;;;;;;21.27;11.23;;;;;;;10.69;33.43;99812.41;340922;29;1024;-64
2022/03/05 00:07:27;;;;;;;20.38;10.73;;;;;;;10.75;33.10;99804.44;340512;29;1265;-64
2022/03/05 00:07:39;;;;;;;20.55;10.80;;;;;;;10.77;33.04;99807.81;340689;29;1425;-64
2022/03/05 00:07:52;;;;;;;22.55;11.07;;;;;;;10.91;32.89;99811.75;341021;28;1412;-64
2022/03/05 00:08:04;;;;;;;23.52;11.48;;;;;;;10.86;33.28;99811.03;340976;29;1055;-64
2022/03/05 00:08:16;;;;;;;23.15;11.20;;;;;;;10.78;33.06;99814.75;341028;29;1437;-64
2022/03/05 00:08:29;;;;;;;20.55;11.27;;;;;;;10.94;33.00;99809.06;339755;29;1938;-64
2022/03/05 00:08:41;;;;;;;19.15;11.02;;;;;;;10.86;33.09;99805.84;339155;29;1266;-64
2022/03/05 00:08:54;;;;;;;19.52;10.38;;;;;;;10.89;32.88;99805.75;340841;29;1184;-64
2022/03/05 00:09:06;;;;;;;20.73;10.52;;;;;;;10.92;33.08;99805.66;339905;29;2085;-64
2022/03/05 00:09:18;;;;;;;21.05;10.90;;;;;;;10.70;33.35;99816.69;338702;29;1362;-64
2022/03/05 00:09:30;;;;;;;20.33;11.02;;;;;;;10.82;33.51;99805.06;337707;29;1470;-64
2022/03/05 00:09:43;;;;;;;19.77;11.00;;;;;;;10.88;32.98;99809.25;338492;29;1213;-64
2022/03/05 00:09:56;;;;;;;21.92;11.48;;;;;;;10.91;32.88;99810.00;338483;29;926;-64
2022/03/05 00:10:09;;;;;;;21.15;11.05;;;;;;;10.99;32.74;99807.16;338230;29;1171;-65
2022/03/05 00:10:21;;;;;;;20.63;10.50;;;;;;;11.00;32.85;99808.84;338353;29;1456;-65
2022/03/05 00:10:34;;;;;;;20.58;10.75;;;;;;;11.09;32.58;99808.56;339142;29;1166;-64
2022/03/05 00:10:46;;;;;;;20.02;11.07;;;;;;;11.02;32.87;99811.41;339383;29;1248;-64
2022/03/05 00:10:58;;;;;;;19.90;11.43;;;;;;;10.86;32.73;99805.84;339462;29;1089;-64
2022/03/05 00:11:10;;;;;;;19.88;11.38;;;;;;;10.98;32.59;99805.44;339610;29;1154;-64
2022/03/05 00:11:22;;;;;;;20.50;11.40;;;;;;;10.78;32.94;99809.53;340471;29;1407;-64
2022/03/05 00:11:35;;;;;;;20.83;11.18;;;;;;;10.69;33.18;99808.97;340568;29;1149;-64
2022/03/05 00:11:49;;;;;;;22.02;11.48;;;;;;;10.85;32.69;99809.34;340766;29;1067;-64
2022/03/05 00:12:01;;;;;;;21.55;11.55;;;;;;;10.83;33.35;99812.00;340736;29;1177;-64
2022/03/05 00:12:14;;;;;;;19.52;11.35;;;;;;;10.65;33.53;99813.41;340408;29;2077;-64
2022/03/05 00:12:26;;;;;;;19.35;10.90;;;;;;;10.74;32.96;99807.91;340905;28;1179;-64
2022/03/05 00:12:38;;;;;;;19.45;10.75;;;;;;;10.63;33.58;99810.00;341252;29;1087;-64
2022/03/05 00:12:51;;;;;;;19.08;10.63;;;;;;;10.73;33.18;99816.63;341215;29;1039;-64
2022/03/05 00:13:04;;;;;;;20.23;11.23;;;;;;;10.89;33.41;99816.16;341202;29;1027;-64
2022/03/05 00:13:17;;;;;;;21.85;11.77;;;;;;;10.92;33.08;99813.44;341276;29;1010;-64
2022/03/05 00:13:30;;;;;;;22.83;11.63;;;;;;;10.95;32.94;99810.75;339619;29;1178;-64
2022/03/05 00:13:42;;;;;;;23.27;11.75;;;;;;;11.00;32.67;99811.44;339094;29;1229;-64
2022/03/05 00:13:54;;;;;;;22.65;11.30;;;;;;;11.03;32.96;99813.97;339468;29;1591;-63
2022/03/05 00:14:06;;;;;;;19.85;10.63;;;;;;;11.13;32.93;99810.16;339665;29;1245;-64
2022/03/05 00:14:18;;;;;;;20.15;10.82;;;;;;;10.93;33.29;99812.56;339439;29;1162;-64
2022/03/05 00:14:31;;;;;;;22.67;11.52;;;;;;;11.02;32.85;99812.25;339438;29;982;-65
2022/03/05 00:14:43;;;;;;;21.55;11.48;;;;;;;11.00;32.56;99814.06;339592;29;1062;-64
2022/03/05 00:14:56;;;;;;;19.05;11.05;;;;;;;11.06;32.43;99805.22;339875;29;735;-64
2022/03/05 00:15:08;;;;;;;20.17;11.18;;;;;;;11.04;32.55;99807.84;339418;29;1364;-63
2022/03/05 00:15:21;;;;;;;21.58;11.38;;;;;;;10.97;32.84;99815.00;339398;29;1028;-64
2022/03/05 00:15:33;;;;;;;21.50;11.00;;;;;;;11.12;32.43;99811.06;339943;29;1389;-64
2022/03/05 00:15:47;;;;;;;21.13;10.70;;;;;;;11.07;32.21;99812.97;339546;29;1028;-64
2022/03/05 00:15:59;;;;;;;20.05;11.18;;;;;;;11.13;32.43;99810.16;339862;29;1394;-64
2022/03/05 00:16:11;;;;;;;18.95;11.20;;;;;;;11.16;32.56;99810.06;339906;29;735;-64
2022/03/05 00:16:24;;;;;;;20.02;11.40;;;;;;;11.14;32.49;99809.25;339717;29;1275;-64
2022/03/05 00:16:37;;;;;;;21.27;11.23;;;;;;;11.17;32.40;99814.38;339559;29;1052;-64
2022/03/05 00:16:49;;;;;;;21.63;11.38;;;;;;;11.09;32.74;99813.78;339856;29;1182;-64
2022/03/05 00:17:03;;;;;;;21.73;11.40;;;;;;;11.10;32.93;99807.66;339827;29;1019;-64
2022/03/05 00:17:15;;;;;;;20.52;11.32;;;;;;;11.13;32.75;99812.78;339504;29;1341;-64
2022/03/05 00:17:27;;;;;;;19.80;11.23;;;;;;;10.96;33.04;99807.25;339772;29;1309;-64
2022/03/05 00:17:40;;;;;;;18.65;10.88;;;;;;;10.66;33.17;99809.91;339619;29;1044;-63
2022/03/05 00:17:53;;;;;;;18.92;10.27;;;;;;;10.79;32.88;99811.22;339338;29;1056;-64
2022/03/05 00:18:05;;;;;;;18.42;10.43;;;;;;;10.84;33.06;99812.84;338610;29;778;-64
2022/03/05 00:18:18;;;;;;;18.63;11.07;;;;;;;10.77;33.02;99820.81;338381;29;1073;-64
2022/03/05 00:18:31;;;;;;;18.58;11.43;;;;;;;10.73;33.33;99820.97;338252;29;1269;-64
2022/03/05 00:18:43;;;;;;;19.33;11.50;;;;;;;10.77;33.38;99807.81;339078;29;915;-64
2022/03/05 00:18:55;;;;;;;20.30;11.32;;;;;;;10.76;33.33;99816.50;338305;29;1055;-64
2022/03/05 00:19:08;;;;;;;20.88;10.85;;;;;;;10.89;33.03;99814.41;337998;29;894;-64
2022/03/05 00:19:21;;;;;;;20.35;10.93;;;;;;;10.91;32.98;99811.75;338483;29;1040;-64
2022/03/05 00:19:33;;;;;;;19.83;11.35;;;;;;;10.99;33.09;99818.41;338319;29;1027;-64
2022/03/05 00:19:45;;;;;;;20.05;11.68;;;;;;;11.08;32.61;99811.22;338475;29;2256;-64
2022/03/05 00:19:57;;;;;;;19.60;11.30;;;;;;;11.11;32.74;99813.72;337949;29;1055;-64
2022/03/05 00:20:13;;;;;;;18.98;10.82;;;;;;;11.16;32.71;99810.06;338984;29;1016;-64
2022/03/05 00:20:26;;;;;;;19.08;10.57;;;;;;;11.13;32.65;99815.38;339164;29;1417;-64
2022/03/05 00:20:38;;;;;;;20.88;10.80;;;;;;;11.13;32.65;99814.53;340688;29;1214;-64
2022/03/05 00:20:51;;;;;;;20.65;11.15;;;;;;;11.09;32.87;99811.16;340822;29;1039;-64
2022/03/05 00:21:03;;;;;;;20.17;11.48;;;;;;;11.00;32.80;99809.69;339755;29;1031;-64
2022/03/05 00:21:16;;;;;;;22.33;12.23;;;;;;;11.04;32.95;99812.22;339469;29;1060;-64
2022/03/05 00:21:29;;;;;;;21.90;12.18;;;;;;;11.00;32.74;99809.69;338507;29;1284;-64
2022/03/05 00:21:42;;;;;;;20.33;11.30;;;;;;;10.93;32.80;99812.56;338379;29;1069;-65
2022/03/05 00:21:54;;;;;;;20.15;10.85;;;;;;;10.98;32.75;99811.50;338281;29;1084;-65
2022/03/05 00:22:06;;;;;;;19.95;10.82;;;;;;;11.02;32.89;99807.06;337829;29;1260;-64
2022/03/05 00:22:18;;;;;;;21.15;11.43;;;;;;;11.05;32.98;99812.16;338300;29;1542;-64
2022/03/05 00:22:32;;;;;;;20.70;11.35;;;;;;;10.84;32.79;99813.69;338180;29;1511;-64
2022/03/05 00:22:46;;;;;;;20.58;10.77;;;;;;;10.93;32.98;99815.16;338355;29;1060;-64
2022/03/05 00:22:58;;;;;;;20.13;10.65;;;;;;;10.69;33.20;99814.16;337976;29;1007;-64
2022/03/05 00:23:10;;;;;;;20.70;10.88;;;;;;;10.41;33.36;99812.38;339061;29;1631;-65
2022/03/05 00:23:22;;;;;;;20.88;11.38;;;;;;;10.59;33.56;99813.59;338532;29;1537;-65
2022/03/05 00:23:35;;;;;;;20.40;11.35;;;;;;;10.75;33.23;99808.78;340392;29;1097;-65
2022/03/05 00:23:48;;;;;;;20.40;11.57;;;;;;;10.69;33.34;99815.00;340850;29;796;-64
2022/03/05 00:24:00;;;;;;;18.35;11.15;;;;;;;10.72;33.61;99804.50;340907;29;1059;-65
2022/03/05 00:24:12;;;;;;;18.60;10.88;;;;;;;10.83;32.93;99811.16;340618;29;1005;-65
2022/03/05 00:24:25;;;;;;;19.60;10.32;;;;;;;10.88;33.06;99804.88;339456;29;1137;-64
2022/03/05 00:24:37;;;;;;;19.63;10.77;;;;;;;10.92;32.92;99806.50;339826;29;1184;-65
2022/03/05 00:24:50;;;;;;;19.83;11.38;;;;;;;10.89;32.86;99816.16;339288;29;1256;-65
2022/03/05 00:25:04;;;;;;;20.13;11.18;;;;;;;10.91;32.88;99809.16;339471;29;1024;-65
2022/03/05 00:25:19;;;;;;;21.13;11.20;;;;;;;10.75;33.54;99799.22;339689;29;1645;-65
2022/03/05 00:25:31;;;;;;;20.35;11.43;;;;;;;10.79;33.82;99811.22;338368;29;1329;-64
2022/03/05 00:25:44;;;;;;;20.42;11.15;;;;;;;10.86;33.27;99813.63;337937;29;952;-65
2022/03/05 00:25:56;;;;;;;19.65;10.93;;;;;;;10.74;33.32;99813.09;338218;29;1254;-64
2022/03/05 00:26:11;;;;;;;19.92;10.88;;;;;;;10.57;33.51;99811.03;338459;29;1043;-64
2022/03/05 00:26:25;;;;;;;20.90;11.55;;;;;;;10.74;33.50;99807.91;338279;29;1114;-64
2022/03/05 00:26:37;;;;;;;21.00;11.63;;;;;;;10.87;33.02;99807.56;340914;29;901;-65
2022/03/05 00:26:49;;;;;;;20.50;11.57;;;;;;;10.65;33.43;99813.41;341824;28;1556;-64
2022/03/05 00:27:04;;;;;;;21.35;11.88;;;;;;;10.71;33.23;99812.38;340350;28;2109;-64
2022/03/05 00:27:18;;;;;;;20.60;11.50;;;;;;;10.84;33.06;99807.63;339719;29;1219;-64
2022/03/05 00:27:31;;;;;;;20.70;11.00;;;;;;;10.90;32.83;99810.03;341022;29;1998;-64
2022/03/05 00:27:44;;;;;;;20.88;11.40;;;;;;;10.92;32.97;99810.84;341209;29;1032;-64
2022/03/05 00:27:56;;;;;;;20.27;11.60;;;;;;;10.98;32.85;99797.66;340965;29;1228;-64
2022/03/05 00:28:09;;;;;;;21.52;11.70;;;;;;;10.89;33.48;99805.75;340832;29;1259;-64
2022/03/05 00:28:21;;;;;;;21.38;11.13;;;;;;;10.83;33.05;99811.16;340531;29;1910;-65
2022/03/05 00:28:33;;;;;;;21.30;11.25;;;;;;;10.83;33.03;99808.56;341209;29;1219;-64
2022/03/05 00:28:46;;;;;;;22.35;11.48;;;;;;;10.90;32.99;99807.44;340905;29;936;-64
2022/03/05 00:28:58;;;;;;;21.85;11.77;;;;;;;10.87;32.80;99812.75;339772;29;1100;-64
2022/03/05 00:29:11;;;;;;;21.35;11.70;;;;;;;10.85;32.86;99812.78;339651;29;1075;-64
2022/03/05 00:29:25;;;;;;;21.80;11.88;;;;;;;10.51;33.58;99815.56;339319;29;1233;-65
2022/03/05 00:29:37;;;;;;;22.25;11.82;;;;;;;10.78;33.13;99808.66;339406;29;1191;-64
2022/03/05 00:29:50;;;;;;;21.42;11.48;;;;;;;10.85;32.94;99807.59;339757;29;1433;-65
2022/03/05 00:30:03;;;;;;;20.00;11.18;;;;;;;10.76;33.21;99811.31;339543;29;941;-65
2022/03/05 00:30:16;;;;;;;20.30;11.25;;;;;;;10.82;33.22;99812.88;339722;29;869;-64
2022/03/05 00:30:28;;;;;;;20.13;11.27;;;;;;;10.79;33.61;99813.00;339444;29;1051;-64
2022/03/05 00:30:41;;;;;;;20.83;11.48;;;;;;;10.84;33.00;99810.25;339475;29;1421;-64
2022/03/05 00:30:58;;;;;;;19.90;11.55;;;;;;;10.79;33.02;99808.63;339657;29;1237;-64
2022/03/05 00:31:10;;;;;;;19.17;11.45;;;;;;;10.71;33.30;99817.56;340826;29;1033;-64
2022/03/05 00:31:22;;;;;;;19.50;11.30;;;;;;;10.71;33.32;99813.22;340939;29;1219;-65
2022/03/05 00:31:34;;;;;;;20.58;11.10;;;;;;;10.65;33.45;99816.00;340881;29;1238;-64
2022/03/05 00:31:46;;;;;;;20.27;11.05;;;;;;;10.75;33.16;99808.78;340698;29;1147;-64
2022/03/05 00:31:59;;;;;;;20.88;11.65;;;;;;;10.62;33.31;99813.47;340759;29;1051;-64
2022/03/05 00:32:12;;;;;;;22.50;12.02;;;;;;;10.71;33.53;99818.41;341228;29;794;-64
2022/03/05 00:32:24;;;;;;;21.00;11.43;;;;;;;10.61;33.58;99814.41;340821;29;1353;-64
2022/03/05 00:32:37;;;;;;;20.63;10.95;;;;;;;10.79;33.21;99816.44;341106;29;976;-64
2022/03/05 00:32:50;;;;;;;20.30;11.02;;;;;;;10.87;33.05;99818.81;340706;29;1140;-64
2022/03/05 00:33:02;;;;;;;20.67;11.38;;;;;;;10.93;33.13;99812.56;341028;29;1149;-64
2022/03/05 00:33:15;;;;;;;23.33;11.50;;;;;;;10.99;32.99;99814.97;340667;29;987;-64
2022/03/05 00:33:28;;;;;;;24.40;11.50;;;;;;;11.02;32.71;99812.25;340677;29;1334;-64
2022/03/05 00:33:40;;;;;;;22.73;10.85;;;;;;;10.94;32.67;99811.66;339690;29;786;-65
2022/03/05 00:33:52;;;;;;;20.63;10.90;;;;;;;10.86;32.76;99817.09;339437;29;1355;-65
2022/03/05 00:34:04;;;;;;;19.33;10.93;;;;;;;10.79;33.09;99811.22;339666;29;989;-64
2022/03/05 00:34:17;;;;;;;18.20;10.90;;;;;;;10.66;33.57;99815.09;338777;29;2565;-65
2022/03/05 00:34:29;;;;;;;19.02;11.02;;;;;;;10.58;33.56;99817.06;339122;29;1169;-64
2022/03/05 00:34:41;;;;;;;20.08;11.27;;;;;;;10.62;33.63;99813.47;339412;29;1224;-65
2022/03/05 00:34:54;;;;;;;20.30;11.38;;;;;;;10.57;33.61;99815.38;339625;29;1174;-65
2022/03/05 00:35:07;;;;;;;20.52;11.57;;;;;;;10.62;33.56;99815.25;339094;29;988;-64
2022/03/05 00:35:19;;;;;;;21.30;12.20;;;;;;;10.49;33.78;99814.78;338645;29;774;-65
2022/03/05 00:35:32;;;;;;;21.10;11.95;;;;;;;10.64;33.49;99816.88;336899;29;1302;-64
2022/03/05 00:35:45;;;;;;;21.02;11.85;;;;;;;10.75;33.40;99813.97;337169;29;919;-64
2022/03/05 00:35:57;;;;;;;20.33;10.95;;;;;;;10.60;33.42;99815.28;337079;29;1015;-64
2022/03/05 00:36:09;;;;;;;22.05;11.00;;;;;;;10.74;33.43;99815.72;336829;29;1356;-64
2022/03/05 00:36:22;;;;;;;23.95;11.68;;;;;;;10.89;33.14;99816.16;337173;29;1390;-64
2022/03/05 00:36:35;;;;;;;23.55;12.02;;;;;;;10.87;33.02;99813.59;336741;29;1093;-64
2022/03/05 00:36:47;;;;;;;21.50;11.60;;;;;;;10.88;32.84;99809.25;336862;29;1004;-64
2022/03/05 00:37:00;;;;;;;19.50;11.10;;;;;;;10.75;33.17;99822.63;337196;29;1065;-65
2022/03/05 00:37:12;;;;;;;21.15;11.48;;;;;;;10.71;33.30;99817.56;336347;29;1865;-65
2022/03/05 00:37:24;;;;;;;20.67;11.13;;;;;;;10.76;33.20;99811.31;337620;29;1149;-64
2022/03/05 00:37:38;;;;;;;19.52;10.85;;;;;;;10.73;33.46;99811.41;338044;29;1044;-64
2022/03/05 00:37:50;;;;;;;20.23;11.30;;;;;;;10.64;33.63;99816.88;337229;29;1948;-64
2022/03/05 00:38:02;;;;;;;20.98;11.60;;;;;;;10.70;33.45;99816.69;338755;29;1045;-64
2022/03/05 00:38:15;;;;;;;20.35;11.48;;;;;;;10.62;33.42;99815.25;339640;29;1052;-64
2022/03/05 00:38:30;;;;;;;19.85;11.15;;;;;;;10.71;33.25;99807.19;339427;29;1348;-64
2022/03/05 00:38:43;;;;;;;21.10;11.40;;;;;;;10.71;33.45;99813.22;339663;29;1239;-63
2022/03/05 00:38:55;;;;;;;21.30;11.82;;;;;;;10.68;33.57;99818.50;339460;29;1024;-64
2022/03/05 00:39:07;;;;;;;21.02;11.90;;;;;;;10.65;33.35;99818.59;338988;29;1464;-64
2022/03/05 00:39:20;;;;;;;19.90;11.88;;;;;;;10.58;33.73;99817.06;339747;29;920;-65
2022/03/05 00:39:32;;;;;;;20.05;11.88;;;;;;;10.51;33.71;99821.63;340491;29;1259;-64
2022/03/05 00:39:44;;;;;;;21.50;11.48;;;;;;;10.61;33.62;99822.19;339473;29;1043;-64
2022/03/05 00:40:00;;;;;;;23.38;11.30;;;;;;;10.68;33.61;99818.50;339487;29;1191;-64
2022/03/05 00:40:14;;;;;;;24.10;11.93;;;;;;;10.71;33.50;99818.41;339600;29;1166;-64
2022/03/05 00:40:27;;;;;;;22.30;12.07;;;;;;;10.68;33.53;99821.09;339161;29;1316;-64
2022/03/05 00:40:41;;;;;;;20.74;11.46;;;;;;;10.73;33.10;99827.03;339599;29;1096;-65
2022/03/05 00:40:53;;;;;;;21.00;11.15;;;;;;;10.73;33.48;99820.97;339513;29;1106;-64
2022/03/05 00:41:05;;;;;;;21.85;11.32;;;;;;;10.86;33.15;99816.25;339564;29;1296;-64
2022/03/05 00:41:17;;;;;;;19.48;11.05;;;;;;;10.91;32.87;99819.56;339569;29;867;-64
2022/03/05 00:41:29;;;;;;;19.90;10.82;;;;;;;10.98;32.98;99816.69;339151;29;1522;-64
2022/03/05 00:41:42;;;;;;;19.95;10.73;;;;;;;11.00;32.59;99819.25;339686;29;1569;-65
2022/03/05 00:41:54;;;;;;;22.00;11.05;;;;;;;10.84;32.94;99816.28;341298;29;781;-64
2022/03/05 00:42:07;;;;;;;22.98;11.15;;;;;;;10.91;32.82;99819.56;340940;29;1218;-64
2022/03/05 00:42:19;;;;;;;20.63;11.32;;;;;;;10.95;32.86;99815.97;338299;29;1894;-64
2022/03/05 00:42:31;;;;;;;20.50;11.60;;;;;;;11.00;32.66;99817.50;338191;29;1190;-64
2022/03/05 00:42:44;;;;;;;21.45;11.57;;;;;;;10.98;32.68;99815.84;337091;29;1240;-64
2022/03/05 00:42:56;;;;;;;21.15;11.15;;;;;;;10.98;32.89;99808.06;337102;29;1910;-64
2022/03/05 00:43:08;;;;;;;21.33;11.38;;;;;;;10.96;32.71;99818.50;338305;29;1818;-64
2022/03/05 00:43:20;;;;;;;22.85;11.77;;;;;;;10.87;32.76;99817.97;337508;29;1753;-64
2022/03/05 00:43:32;;;;;;;22.23;11.82;;;;;;;10.85;32.84;99820.59;338315;29;1082;-64
2022/03/05 00:43:45;;;;;;;21.10;11.57;;;;;;;10.84;33.03;99812.84;337503;29;1071;-64
2022/03/05 00:43:57;;;;;;;20.55;11.18;;;;;;;10.96;33.08;99821.09;338283;29;1495;-64
2022/03/05 00:44:13;;;;;;;19.10;10.35;;;;;;;10.97;32.84;99815.00;337850;29;1017;-64
2022/03/05 00:44:25;;;;;;;18.02;10.80;;;;;;;10.57;33.52;99816.22;338034;29;1157;-64
2022/03/05 00:44:37;;;;;;;19.40;11.27;;;;;;;10.66;33.37;99825.50;337915;29;1005;-64
2022/03/05 00:44:50;;;;;;;21.10;11.10;;;;;;;10.68;33.35;99828.91;338506;29;1728;-64
2022/03/05 00:45:05;;;;;;;22.00;11.02;;;;;;;10.56;33.40;99824.06;339020;29;1970;-64
2022/03/05 00:45:17;;;;;;;23.05;11.15;;;;;;;10.49;33.58;99823.41;338852;29;1619;-64
2022/03/05 00:45:32;;;;;;;22.33;11.48;;;;;;;10.67;33.38;99822.00;339498;29;1396;-64
2022/03/05 00:45:47;;;;;;;22.27;11.52;;;;;;;10.64;33.32;99821.25;339676;29;1229;-64
2022/03/05 00:46:00;;;;;;;21.00;11.18;;;;;;;10.77;33.28;99823.44;339071;29;1243;-64
2022/03/05 00:46:15;;;;;;;19.20;10.75;;;;;;;10.82;32.85;99825.03;338088;29;909;-64
2022/03/05 00:46:27;;;;;;;21.08;11.05;;;;;;;10.72;33.00;99819.25;338885;29;1291;-64
2022/03/05 00:46:42;;;;;;;21.98;11.48;;;;;;;10.71;33.17;99820.19;340552;29;893;-64
2022/03/05 00:46:56;;;;;;;21.35;11.30;;;;;;;10.65;33.25;99821.22;340686;29;1223;-64
2022/03/05 00:47:09;;;;;;;21.13;11.02;;;;;;;10.64;33.41;99822.09;340446;29;945;-64
2022/03/05 00:47:22;;;;;;;21.83;11.25;;;;;;;10.71;33.43;99823.63;339360;29;1289;-65
2022/03/05 00:47:36;;;;;;;22.98;11.80;;;;;;;10.44;34.03;99829.63;339077;29;1261;-64
2022/03/05 00:47:48;;;;;;;22.00;11.77;;;;;;;10.54;33.64;99825.88;339651;29;1208;-64
2022/03/05 00:48:00;;;;;;;20.50;11.23;;;;;;;10.61;33.66;99827.41;339619;29;1028;-64
2022/03/05 00:48:14;;;;;;;20.00;11.05;;;;;;;10.72;33.12;99825.31;339595;29;1141;-64
2022/03/05 00:48:27;;;;;;;20.85;11.45;;;;;;;10.79;33.19;99826.84;339702;29;896;-63
2022/03/05 00:48:40;;;;;;;20.38;11.07;;;;;;;10.85;33.33;99825.81;339570;29;1139;-65
2022/03/05 00:48:53;;;;;;;18.75;10.77;;;;;;;10.79;33.39;99832.03;338587;29;1722;-64
2022/03/05 00:49:05;;;;;;;17.88;11.16;;;;;;;10.40;33.40;99823.66;337589;29;1004;-64
2022/03/05 00:49:17;;;;;;;18.17;11.35;;;;;;;10.63;33.36;99819.56;339153;29;1107;-64
2022/03/05 00:49:29;;;;;;;18.58;11.05;;;;;;;10.67;33.07;99819.41;340035;29;1285;-65
2022/03/05 00:49:42;;;;;;;19.75;10.93;;;;;;;10.79;33.09;99826.84;340328;29;868;-64
2022/03/05 00:49:54;;;;;;;19.90;10.85;;;;;;;10.80;32.93;99817.28;340982;29;940;-64
2022/03/05 00:50:08;;;;;;;19.58;11.40;;;;;;;10.81;33.31;99823.34;340882;29;1970;-64
2022/03/05 00:50:20;;;;;;;19.90;11.55;;;;;;;10.90;32.99;99820.44;340682;29;1032;-64
2022/03/05 00:50:33;;;;;;;20.70;11.40;;;;;;;10.86;32.92;99821.44;340976;29;1095;-64
2022/03/05 00:50:45;;;;;;;20.63;10.80;;;;;;;10.66;33.18;99825.50;341120;29;1061;-64
2022/03/05 00:50:58;;;;;;;21.38;11.00;;;;;;;10.67;33.22;99828.97;340405;29;1516;-64
2022/03/05 00:51:10;;;;;;;21.92;11.55;;;;;;;10.47;33.56;99826.97;340561;29;1080;-65
2022/03/05 00:51:22;;;;;;;21.90;11.73;;;;;;;10.44;33.58;99829.63;339637;29;1564;-64
2022/03/05 00:51:35;;;;;;;21.95;11.70;;;;;;;10.48;33.50;99829.50;339521;29;1068;-64
2022/03/05 00:51:50;;;;;;;20.27;10.85;;;;;;;10.54;33.71;99821.53;339429;29;1626;-64
2022/03/05 00:52:03;;;;;;;19.00;10.80;;;;;;;10.45;33.72;99820.94;338469;29;1707;-65
2022/03/05 00:52:16;;;;;;;19.83;11.43;;;;;;;10.60;33.33;99828.28;338265;29;1673;-64
2022/03/05 00:52:28;;;;;;;21.00;11.70;;;;;;;10.71;33.27;99818.41;338504;29;1210;-64
2022/03/05 00:52:40;;;;;;;21.42;11.73;;;;;;;10.73;33.20;99827.03;337681;29;1805;-64
2022/03/05 00:52:53;;;;;;;20.35;11.10;;;;;;;10.64;33.40;99826.44;338075;29;1168;-64
2022/03/05 00:53:06;;;;;;;20.02;10.90;;;;;;;10.44;33.59;99824.44;338193;29;1058;-64
2022/03/05 00:53:21;;;;;;;19.38;11.25;;;;;;;10.45;33.94;99824.41;338083;29;1075;-64
2022/03/05 00:53:33;;;;;;;19.45;11.73;;;;;;;10.37;33.79;99828.97;336918;29;892;-65
2022/03/05 00:53:45;;;;;;;19.40;11.60;;;;;;;10.48;33.68;99826.88;337796;29;1312;-64
2022/03/05 00:53:57;;;;;;;21.27;11.73;;;;;;;10.56;33.35;99824.94;338190;29;1050;-65
2022/03/05 00:54:10;;;;;;;22.33;11.35;;;;;;;10.66;33.25;99824.66;340235;29;1216;-64
2022/03/05 00:54:22;;;;;;;21.73;11.27;;;;;;;10.67;33.10;99819.41;340511;29;1301;-64
2022/03/05 00:54:34;;;;;;;20.92;11.18;;;;;;;10.64;33.09;99827.28;340667;29;895;-64
2022/03/05 00:54:48;;;;;;;21.83;11.40;;;;;;;10.71;33.01;99826.22;340402;29;997;-64
2022/03/05 00:55:00;;;;;;;20.92;11.55;;;;;;;10.61;33.16;99817.00;340520;29;1165;-64
2022/03/05 00:55:13;;;;;;;21.08;11.02;;;;;;;10.73;33.08;99824.41;340948;29;952;-64
2022/03/05 00:55:25;;;;;;;20.45;10.57;;;;;;;10.79;33.11;99821.63;340481;29;1360;-64
2022/03/05 00:55:37;;;;;;;21.77;10.82;;;;;;;10.55;33.38;99827.59;341153;29;1039;-64
2022/03/05 00:55:50;;;;;;;21.73;11.40;;;;;;;10.69;33.23;99825.41;340476;29;1028;-65
2022/03/05 00:56:02;;;;;;;21.17;11.43;;;;;;;10.76;32.91;99824.31;341287;29;774;-64
2022/03/05 00:56:14;;;;;;;19.20;11.02;;;;;;;10.64;33.20;99827.28;340200;29;1712;-64
2022/03/05 00:56:27;;;;;;;19.40;10.95;;;;;;;10.74;33.32;99823.50;340774;29;1132;-64
2022/03/05 00:56:39;;;;;;;18.10;10.73;;;;;;;10.77;33.14;99826.03;341141;29;1043;-64
2022/03/05 00:56:53;;;;;;;19.10;10.88;;;;;;;10.55;33.24;99825.81;341006;29;1043;-65
2022/03/05 00:57:06;;;;;;;23.40;11.50;;;;;;;10.40;33.61;99823.66;340422;29;1037;-64
2022/03/05 00:57:18;;;;;;;25.50;11.52;;;;;;;10.37;33.80;99832.41;340691;29;1211;-64
2022/03/05 00:57:30;;;;;;;24.38;11.48;;;;;;;10.53;33.56;99826.78;340984;29;1543;-65
2022/03/05 00:57:43;;;;;;;22.48;11.23;;;;;;;10.38;33.87;99825.47;340727;29;1371;-64
2022/03/05 00:57:55;;;;;;;20.55;11.68;;;;;;;10.17;34.28;99821.72;339893;29;747;-64
2022/03/05 00:58:07;;;;;;;21.83;11.93;;;;;;;10.00;34.37;99832.56;339723;29;1490;-65
2022/03/05 00:58:20;;;;;;;23.23;11.48;;;;;;;10.13;34.45;99825.28;338335;29;1028;-65
2022/03/05 00:58:32;;;;;;;21.02;10.80;;;;;;;10.21;34.38;99828.53;337026;29;1058;-64
2022/03/05 00:58:44;;;;;;;19.63;11.30;;;;;;;10.23;34.49;99821.53;336884;29;854;-64
2022/03/05 00:58:57;;;;;;;19.83;11.68;;;;;;;10.26;34.32;99821.47;337486;29;1261;-65
2022/03/05 00:59:12;;;;;;;19.83;11.18;;;;;;;10.46;33.69;99828.69;338233;29;1108;-64
2022/03/05 00:59:25;;;;;;;19.90;10.77;;;;;;;10.57;33.75;99825.78;338242;29;1066;-64
2022/03/05 00:59:37;;;;;;;19.98;10.95;;;;;;;10.65;33.57;99822.97;338256;29;1037;-64
2022/03/05 00:59:50;;;;;;;21.13;11.20;;;;;;;10.59;33.39;99824.00;338343;29;1056;-65
2022/03/05 01:00:05;;;;;;;20.77;11.40;;;;;;;10.59;33.41;99821.41;338424;29;1627;-65